KN4CCE-13 Weather Reports


Display with metric or nautical units.
time (UTC)temp
F
wind
direction
speed
MPH
gust
MPH
rain 1hr
in
rain 24hr
in
rain mn
in
humidity
%
barometer
mb
20190323002538 57 327 2.0 4.0 0.00 0.00 0.00 36 1011.0
20190323002036 58 305 3.0 5.0 0.00 0.00 0.00 35 1010.9
20190323001534 58 322 4.0 8.0 0.00 0.00 0.00 35 1010.7
20190323001034 58 306 2.0 4.0 0.00 0.00 0.00 36 1010.5
20190323000532 58 318 2.0 4.0 0.00 0.00 0.00 36 1010.4
20190323000030 59 318 3.0 8.0 0.00 0.00 0.00 35 1010.2
20190322235528 59 312 3.0 8.0 0.00 0.00 0.00 35 1010.1
20190322235026 60 276 3.0 5.0 0.00 0.00 0.00 37 1009.6
20190322234524 60 309 2.0 4.0 0.00 0.00 0.00 35 1009.6
20190322234022 60 321 2.0 5.0 0.00 0.00 0.00 35 1009.4
20190322233520 60 308 2.0 3.0 0.00 0.00 0.00 36 1009.3
20190322233018 60 308 3.0 5.0 0.00 0.00 0.00 36 1009.1
20190322232516 60 308 2.0 4.0 0.00 0.00 0.00 35 1009.0
20190322232014 60 305 3.0 6.0 0.00 0.00 0.00 35 1008.9
20190322231513 60 308 3.0 8.0 0.00 0.00 0.00 34 1008.9
20190322231011 60 315 3.0 5.0 0.00 0.00 0.00 34 1008.7
20190322230508 61 319 3.0 6.0 0.00 0.00 0.00 33 1008.6
20190322230006 61 292 2.0 4.0 0.00 0.00 0.00 34 1008.4
20190322225504 61 312 2.0 5.0 0.00 0.00 0.00 32 1008.3
20190322225002 61 313 3.0 8.0 0.00 0.00 0.00 32 1008.1
20190322224500 62 313 4.0 9.0 0.00 0.00 0.00 31 1008.0
20190322223958 62 296 3.0 5.0 0.00 0.00 0.00 31 1007.9
20190322223456 62 307 3.0 7.0 0.00 0.00 0.00 30 1007.8
20190322222954 62 292 4.0 7.0 0.00 0.00 0.00 30 1007.7
20190322222452 62 310 3.0 8.0 0.00 0.00 0.00 31 1007.5
20190322221950 63 327 4.0 9.0 0.00 0.00 0.00 30 1007.3
20190322221447 63 315 3.0 6.0 0.00 0.00 0.00 30 1007.3
20190322220946 62 309 4.0 9.0 0.00 0.00 0.00 32 1007.3
20190322220444 62 308 3.0 10.0 0.00 0.00 0.00 33 1007.1
20190322215942 62 312 3.0 5.0 0.00 0.00 0.00 38 1007.1
20190322215440 61 306 2.0 5.0 0.00 0.00 0.00 38 1007.0
20190322214937 62 310 3.0 7.0 0.00 0.00 0.00 39 1006.9
20190322214436 62 300 4.0 9.0 0.00 0.00 0.00 38 1006.9
20190322213933 63 303 3.0 8.0 0.00 0.00 0.00 37 1006.8
20190322213432 63 300 4.0 9.0 0.00 0.00 0.00 37 1006.8
20190322212929 63 294 3.0 6.0 0.00 0.00 0.00 38 1006.7
20190322212427 63 304 3.0 6.0 0.00 0.00 0.00 37 1006.7
20190322211926 63 307 4.0 7.0 0.00 0.00 0.00 38 1006.6
20190322211424 62 313 4.0 8.0 0.00 0.00 0.00 38 1006.7
20190322210921 61 327 4.0 8.0 0.00 0.00 0.00 38 1006.7
20190322210420 62 319 4.0 8.0 0.00 0.00 0.00 38 1006.8
20190322205918 62 313 4.0 9.0 0.00 0.00 0.00 38 1006.7
20190322205415 63 230 5.0 9.0 0.00 0.00 0.00 37 1006.7
20190322204914 63 299 2.0 5.0 0.00 0.00 0.00 38 1006.7
20190322204412 62 303 3.0 8.0 0.00 0.00 0.00 39 1006.6
20190322203911 62 315 4.0 8.0 0.00 0.00 0.00 40 1006.6
20190322203409 61 317 3.0 8.0 0.00 0.00 0.00 40 1006.6
20190322202907 61 313 3.0 7.0 0.00 0.00 0.00 39 1006.5
20190322202406 62 317 4.0 11.0 0.00 0.00 0.00 40 1006.7
20190322201903 61 313 4.0 9.0 0.00 0.00 0.00 38 1006.7
20190322201401 61 285 3.0 5.0 0.00 0.00 0.00 40 1006.7
20190322200859 61 294 6.0 9.0 0.00 0.00 0.00 39 1006.8
20190322200357 62 304 4.0 13.0 0.00 0.00 0.00 38 1007.0
20190322195856 62 308 3.0 12.0 0.00 0.00 0.00 41 1007.0
20190322195353 62 316 3.0 12.0 0.00 0.00 0.00 38 1007.0
20190322194851 62 313 3.0 5.0 0.00 0.00 0.00 39 1006.9
20190322194349 62 308 3.0 8.0 0.00 0.00 0.00 37 1007.0
20190322193847 63 286 3.0 8.0 0.00 0.00 0.00 35 1007.0
20190322193346 62 298 3.0 5.0 0.00 0.00 0.00 35 1007.0
20190322192843 62 294 4.0 10.0 0.00 0.00 0.00 39 1007.1
20190322192341 62 304 4.0 9.0 0.00 0.00 0.00 37 1007.1
20190322191840 62 309 4.0 9.0 0.00 0.00 0.00 37 1007.2
20190322191337 62 302 4.0 7.0 0.00 0.00 0.00 39 1007.2
20190322190835 62 298 3.0 9.0 0.00 0.00 0.00 38 1007.2
20190322190333 62 360 4.0 8.0 0.00 0.00 0.00 39 1007.2
20190322185831 62 302 4.0 9.0 0.00 0.00 0.00 39 1007.4
20190322185329 62 288 4.0 10.0 0.00 0.00 0.00 38 1007.6
20190322184827 62 300 4.0 9.0 0.00 0.00 0.00 37 1007.6
20190322184325 62 287 3.0 8.0 0.00 0.00 0.00 38 1007.6
20190322183823 62 299 3.0 7.0 0.00 0.00 0.00 36 1007.7
20190322183321 63 302 2.0 5.0 0.00 0.00 0.00 37 1007.9
20190322182819 63 284 4.0 8.0 0.00 0.00 0.00 40 1007.8
20190322182317 61 304 3.0 7.0 0.00 0.00 0.00 38 1008.0
20190322181815 62 292 4.0 8.0 0.00 0.00 0.00 39 1008.2
20190322181313 62 317 3.0 6.0 0.00 0.00 0.00 39 1008.3
20190322180811 62 294 3.0 8.0 0.00 0.00 0.00 41 1008.4
20190322180309 62 306 3.0 8.0 0.00 0.00 0.00 42 1008.4
20190322175807 61 304 3.0 7.0 0.00 0.00 0.00 42 1008.6
20190322175305 61 297 4.0 8.0 0.00 0.00 0.00 43 1008.7
20190322174803 61 334 4.0 8.0 0.00 0.00 0.00 38 1008.7
20190322174301 61 319 3.0 7.0 0.00 0.00 0.00 37 1008.8
20190322173759 61 302 2.0 4.0 0.00 0.00 0.00 41 1008.8
20190322173257 60 300 2.0 4.0 0.00 0.00 0.00 42 1009.0
20190322172755 60 313 3.0 5.0 0.00 0.00 0.00 38 1009.1
20190322172253 60 298 3.0 6.0 0.00 0.00 0.00 40 1009.1
20190322171752 60 312 4.0 8.0 0.00 0.00 0.00 41 1009.1
20190322171250 60 300 4.0 8.0 0.00 0.00 0.00 40 1009.2
20190322170747 60 292 2.0 5.0 0.00 0.00 0.00 41 1009.1
20190322170245 60 288 4.0 8.0 0.00 0.00 0.00 44 1009.3
20190322165743 59 301 3.0 8.0 0.00 0.00 0.00 45 1009.3
20190322165241 60 306 4.0 6.0 0.00 0.00 0.00 43 1009.4
20190322164740 59 309 3.0 5.0 0.00 0.00 0.00 45 1009.5
20190322164237 59 328 4.0 8.0 0.00 0.00 0.00 40 1009.6
20190322163735 59 313 3.0 6.0 0.00 0.00 0.00 41 1009.5
20190322163233 59 315 3.0 9.0 0.00 0.00 0.00 42 1009.6
20190322162731 58 317 4.0 7.0 0.00 0.00 0.00 41 1009.8
20190322162229 59 302 5.0 9.0 0.00 0.00 0.00 44 1009.9
20190322161727 59 197 4.0 8.0 0.00 0.00 0.00 45 1009.8
20190322161225 59 311 3.0 5.0 0.00 0.00 0.00 40 1009.7
20190322160723 59 298 3.0 5.0 0.00 0.00 0.00 45 1009.7
20190322160221 59 32 4.0 7.0 0.00 0.00 0.00 44 1009.8
20190322155719 58 302 4.0 8.0 0.00 0.00 0.00 44 1009.7
20190322155217 59 308 3.0 8.0 0.00 0.00 0.00 44 1009.7
20190322154715 58 308 4.0 8.0 0.00 0.00 0.00 45 1009.8
20190322154213 58 286 3.0 7.0 0.00 0.00 0.00 45 1009.7
20190322153711 59 318 3.0 5.0 0.00 0.00 0.00 46 1009.8
20190322153209 58 316 3.0 4.0 0.00 0.00 0.00 48 1009.8
20190322152707 56 313 3.0 7.0 0.00 0.00 0.00 50 1009.7
20190322152205 56 306 4.0 9.0 0.00 0.00 0.00 48 1010.0
20190322151703 57 307 3.0 5.0 0.00 0.00 0.00 47 1010.0
20190322151201 57 299 4.0 7.0 0.00 0.00 0.00 53 1010.0
20190322150659 57 295 2.0 5.0 0.00 0.00 0.00 49 1010.0
20190322150157 56 307 3.0 7.0 0.00 0.00 0.00 50 1010.0
20190322145655 56 188 2.0 5.0 0.00 0.02 0.00 53 1009.9
20190322145154 56 310 3.0 8.0 0.00 0.02 0.00 52 1010.0
20190322144637 55 296 3.0 8.0 0.00 0.02 0.00 54 1010.0
20190322143710 55 339 4.0 7.0 0.00 0.02 0.00 51 1009.9
20190322143207 55 300 3.0 8.0 0.00 0.02 0.00 50 1009.8
20190322142705 54 315 4.0 8.0 0.00 0.02 0.00 52 1009.9
20190322142203 54 305 3.0 5.0 0.00 0.02 0.00 51 1009.8
20190322141701 54 296 4.0 7.0 0.00 0.02 0.00 52 1009.7
20190322141159 53 298 4.0 7.0 0.00 0.02 0.00 55 1009.6
20190322140657 53 317 4.0 8.0 0.00 0.02 0.00 56 1009.7
20190322140155 53 316 3.0 8.0 0.00 0.02 0.00 56 1009.6
20190322135653 52 306 3.0 4.0 0.00 0.03 0.00 58 1009.7
20190322135151 52 300 4.0 9.0 0.00 0.03 0.00 59 1009.7
20190322134649 52 297 2.0 7.0 0.00 0.03 0.00 59 1009.6
20190322134147 52 296 3.0 5.0 0.00 0.03 0.00 62 1009.6
20190322133645 52 303 2.0 4.0 0.00 0.03 0.00 60 1009.6
20190322133143 51 311 3.0 6.0 0.00 0.03 0.00 63 1009.7
20190322132641 51 327 2.0 5.0 0.00 0.03 0.00 62 1009.6
20190322132139 50 297 3.0 4.0 0.00 0.03 0.00 64 1009.6
20190322131637 50 302 2.0 4.0 0.00 0.03 0.00 64 1009.6
20190322131135 49 311 3.0 4.0 0.00 0.03 0.00 67 1009.6
20190322130633 49 294 3.0 5.0 0.00 0.03 0.00 66 1009.7
20190322130131 49 311 2.0 4.0 0.00 0.03 0.00 67 1009.7
20190322125629 48 311 2.0 4.0 0.00 0.04 0.00 68 1009.7
20190322125126 48 289 2.0 4.0 0.00 0.04 0.00 70 1009.6
20190322124624 47 306 3.0 4.0 0.00 0.04 0.00 70 1009.7
20190322124123 47 302 2.0 4.0 0.00 0.04 0.00 71 1009.7
20190322123621 46 306 2.0 4.0 0.00 0.04 0.00 72 1009.7
20190322123119 46 303 2.0 4.0 0.00 0.04 0.00 73 1009.6
20190322122617 46 314 2.0 3.0 0.00 0.04 0.00 74 1009.6
20190322122115 45 322 2.0 3.0 0.00 0.04 0.00 74 1009.6
20190322121613 45 322 2.0 3.0 0.00 0.04 0.00 74 1009.4
20190322121112 45 322 2.0 3.0 0.00 0.04 0.00 74 1009.5
20190322120609 44 322 2.0 4.0 0.00 0.04 0.00 75 1009.4
20190322120107 44 307 2.0 3.0 0.00 0.04 0.00 75 1009.2
20190322115605 44 296 2.0 3.0 0.00 0.06 0.00 75 1009.2
20190322115103 44 296 2.0 3.0 0.00 0.06 0.00 76 1009.1
20190322114600 43 294 2.0 3.0 0.00 0.06 0.00 76 1009.0
20190322114059 43 309 2.0 4.0 0.00 0.06 0.00 76 1009.0
20190322113557 43 306 2.0 4.0 0.00 0.06 0.00 77 1008.9
20190322113055 43 317 2.0 3.0 0.00 0.06 0.00 77 1008.8
20190322112552 43 317 2.0 3.0 0.00 0.06 0.00 77 1008.9
20190322112050 43 317 2.0 3.0 0.00 0.06 0.00 77 1008.9
20190322111549 43 317 2.0 3.0 0.00 0.06 0.00 77 1008.8
20190322111049 43 317 2.0 3.0 0.00 0.06 0.00 77 1008.7
20190322110545 43 317 2.0 4.0 0.00 0.06 0.00 77 1008.7
20190322110042 43 323 1.0 3.0 0.00 0.06 0.00 77 1008.8
20190322105540 43 323 2.0 4.0 0.00 0.09 0.00 77 1008.7
20190322105039 43 317 1.0 3.0 0.00 0.09 0.00 78 1008.7
20190322104537 43 317 2.0 3.0 0.00 0.09 0.00 77 1008.7
20190322104035 43 317 1.0 3.0 0.00 0.09 0.00 78 1008.6
20190322103532 43 317 1.0 3.0 0.00 0.09 0.00 78 1008.6
20190322103030 43 317 1.0 3.0 0.00 0.09 0.00 77 1008.5
20190322102528 43 317 1.0 3.0 0.00 0.09 0.00 77 1008.5
20190322102026 43 360 0.0 0.0 0.00 0.09 0.00 78 1008.4
20190322101524 43 360 0.0 0.0 0.00 0.09 0.00 78 1008.4
20190322101022 43 360 0.0 0.0 0.00 0.09 0.00 78 1008.3
20190322100520 43 317 1.0 2.0 0.00 0.09 0.00 77 1008.3
20190322100018 43 317 1.0 3.0 0.00 0.09 0.00 77 1008.3
20190322095517 43 317 1.0 3.0 0.00 0.15 0.00 77 1008.2
20190322095015 43 317 2.0 3.0 0.00 0.15 0.00 77 1008.2
20190322094512 43 317 2.0 3.0 0.00 0.15 0.00 78 1008.2
20190322094011 43 317 2.0 3.0 0.00 0.15 0.00 78 1008.2
20190322093508 43 317 2.0 3.0 0.00 0.15 0.00 78 1008.1
20190322093006 43 317 2.0 3.0 0.00 0.15 0.00 78 1008.0
20190322092504 43 317 1.0 3.0 0.00 0.15 0.00 78 1008.0
20190322092002 43 360 0.0 0.0 0.00 0.15 0.00 79 1007.9
20190322091500 43 360 0.0 0.0 0.00 0.15 0.00 79 1008.0
20190322090958 42 360 0.0 0.0 0.00 0.15 0.00 79 1007.9
20190322090456 42 360 0.0 0.0 0.00 0.15 0.00 79 1007.9
20190322085955 42 360 0.0 0.0 0.00 0.22 0.00 80 1007.8
20190322085452 42 360 0.0 0.0 0.00 0.22 0.00 80 1007.7
20190322084950 42 360 0.0 0.0 0.00 0.22 0.00 80 1007.7
20190322084449 42 360 0.0 0.0 0.00 0.22 0.00 80 1007.8
20190322083948 43 360 0.0 0.0 0.00 0.22 0.00 79 1007.9
20190322083446 43 360 0.0 0.0 0.00 0.22 0.00 79 1007.9
20190322082944 43 360 0.0 0.0 0.00 0.22 0.00 79 1007.8
20190322082442 43 360 0.0 0.0 0.00 0.22 0.00 79 1007.7
20190322081940 43 360 0.0 0.0 0.00 0.22 0.00 79 1007.8
20190322081438 43 360 0.0 0.0 0.00 0.22 0.00 78 1007.8
20190322080936 44 360 0.0 0.0 0.00 0.22 0.00 78 1007.8
20190322080434 44 360 0.0 0.0 0.00 0.22 0.00 78 1007.8
20190322075932 44 360 0.0 1.0 0.00 0.33 0.00 78 1007.7
20190322075430 44 317 1.0 2.0 0.00 0.33 0.00 78 1007.7
20190322074928 44 317 1.0 2.0 0.00 0.33 0.00 78 1007.8
20190322074427 44 317 1.0 3.0 0.00 0.33 0.00 78 1007.8
20190322073924 44 317 1.0 2.0 0.00 0.33 0.00 78 1007.9
20190322073422 44 317 1.0 3.0 0.00 0.33 0.00 78 1007.9
20190322072920 45 317 2.0 3.0 0.00 0.33 0.00 78 1007.9
20190322072418 45 317 2.0 4.0 0.00 0.33 0.00 78 1007.9
20190322071916 45 301 2.0 3.0 0.00 0.33 0.00 78 1007.9
20190322071414 45 301 2.0 3.0 0.00 0.33 0.00 78 1008.0
20190322070912 45 300 2.0 3.0 0.00 0.33 0.00 78 1008.0
20190322070410 45 300 2.0 3.0 0.00 0.33 0.00 79 1008.1
20190322065908 45 299 2.0 3.0 0.00 0.39 0.00 79 1008.1
20190322065406 45 302 2.0 3.0 0.00 0.39 0.00 79 1008.1
20190322064904 45 302 2.0 3.0 0.00 0.39 0.00 80 1008.2
20190322064402 45 317 1.0 3.0 0.00 0.39 0.00 80 1008.2
20190322063901 45 317 1.0 2.0 0.00 0.39 0.00 80 1008.1
20190322063358 45 360 0.0 2.0 0.00 0.39 0.00 79 1008.0
20190322062856 45 317 1.0 3.0 0.00 0.39 0.00 79 1008.2
20190322062354 46 317 1.0 2.0 0.00 0.39 0.00 79 1008.1
20190322061852 46 317 2.0 3.0 0.00 0.39 0.00 79 1008.1
20190322061350 46 317 2.0 3.0 0.00 0.39 0.00 79 1008.1
20190322060848 46 317 1.0 2.0 0.00 0.39 0.00 79 1008.1
20190322060346 46 317 1.0 3.0 0.00 0.39 0.00 80 1008.0
20190322055844 46 317 1.0 3.0 0.00 0.42 0.00 80 1008.0
20190322055342 46 317 2.0 3.0 0.00 0.42 0.00 80 1008.0
20190322054840 46 317 2.0 3.0 0.00 0.42 0.00 80 1008.1
20190322054338 46 327 2.0 3.0 0.00 0.42 0.00 80 1008.1
20190322053836 46 329 1.0 3.0 0.00 0.42 0.00 80 1008.1
20190322053334 46 329 2.0 4.0 0.00 0.42 0.00 80 1008.0
20190322052832 47 329 2.0 4.0 0.00 0.42 0.00 80 1008.0
20190322052330 47 317 2.0 3.0 0.00 0.42 0.00 80 1007.9
20190322051828 47 317 2.0 4.0 0.00 0.42 0.00 80 1007.9
20190322051326 47 317 2.0 3.0 0.00 0.42 0.00 80 1007.9
20190322050824 47 317 2.0 3.0 0.00 0.42 0.00 80 1008.0
20190322050322 47 317 2.0 3.0 0.00 0.42 0.00 80 1007.9
20190322045820 47 317 2.0 3.0 0.00 0.44 0.00 80 1007.9
20190322045318 47 317 1.0 2.0 0.00 0.44 0.00 80 1007.8
20190322044816 47 360 0.0 2.0 0.00 0.44 0.00 80 1007.8
20190322044315 47 317 1.0 3.0 0.00 0.44 0.00 80 1007.8
20190322043812 48 317 2.0 3.0 0.00 0.44 0.00 79 1007.8
20190322043310 48 317 1.0 3.0 0.00 0.44 0.00 79 1007.9
20190322042808 48 318 2.0 3.0 0.00 0.44 0.00 79 1007.9
20190322042306 48 318 2.0 3.0 0.00 0.44 0.00 79 1007.9
20190322041804 48 318 2.0 3.0 0.00 0.44 0.00 78 1007.8
20190322041305 48 318 1.0 2.0 0.00 0.44 0.00 78 1007.8
20190322040803 49 318 2.0 3.0 0.00 0.44 0.00 78 1007.9
20190322040259 49 318 2.0 3.0 0.00 0.44 0.00 77 1007.8
20190322035756 49 318 2.0 3.0 0.00 0.44 0.44 77 1007.8
20190322035254 49 318 2.0 3.0 0.00 0.44 0.44 76 1007.8
20190322034752 49 319 2.0 3.0 0.00 0.44 0.44 76 1007.8
20190322034250 50 319 2.0 4.0 0.00 0.44 0.44 75 1007.7
20190322033748 50 311 2.0 4.0 0.00 0.44 0.44 75 1007.6
20190322033246 50 311 2.0 3.0 0.00 0.44 0.44 75 1007.6
20190322032745 50 298 2.0 3.0 0.00 0.44 0.44 74 1007.6
20190322032242 50 322 2.0 4.0 0.00 0.44 0.44 74 1007.5
20190322031740 50 322 2.0 4.0 0.00 0.44 0.44 74 1007.5
20190322031238 50 304 2.0 3.0 0.00 0.44 0.44 75 1007.6
20190322030736 51 304 2.0 3.0 0.00 0.44 0.44 74 1007.6
20190322030234 51 319 3.0 4.0 0.00 0.44 0.44 73 1007.5
20190322025733 51 300 4.0 8.0 0.00 0.44 0.44 73 1007.5
20190322025232 51 315 2.0 4.0 0.00 0.44 0.44 72 1007.5
20190322024731 51 307 3.0 4.0 0.00 0.44 0.44 71 1007.5
20190322024228 51 298 2.0 4.0 0.00 0.44 0.44 71 1007.5
20190322023726 51 313 2.0 4.0 0.00 0.44 0.44 71 1007.5
20190322023224 51 311 2.0 4.0 0.00 0.44 0.44 71 1007.5
20190322022722 51 316 2.0 3.0 0.00 0.44 0.44 70 1007.4
20190322022220 51 293 2.0 4.0 0.00 0.44 0.44 71 1007.5
20190322021718 51 291 2.0 4.0 0.00 0.44 0.44 71 1007.4
20190322021216 51 298 2.0 3.0 0.00 0.44 0.44 71 1007.4
20190322020714 51 311 2.0 3.0 0.00 0.44 0.44 71 1007.3
20190322020212 51 311 2.0 3.0 0.00 0.44 0.44 71 1007.3
20190322015710 51 331 2.0 2.0 0.00 0.44 0.44 72 1007.3
20190322015208 51 331 2.0 3.0 0.00 0.44 0.44 72 1007.3
20190322014706 51 331 1.0 2.0 0.00 0.44 0.44 72 1007.2
20190322014204 51 331 1.0 2.0 0.00 0.44 0.44 72 1007.3
20190322013702 51 331 1.0 2.0 0.00 0.44 0.44 72 1007.2
20190322013200 51 331 1.0 2.0 0.00 0.44 0.44 72 1007.3
20190322012658 51 331 2.0 3.0 0.00 0.44 0.44 73 1007.3
20190322012156 51 331 2.0 3.0 0.00 0.44 0.44 74 1007.3
20190322011654 51 360 0.0 2.0 0.00 0.44 0.44 76 1007.3
20190322011152 51 360 0.0 0.0 0.00 0.44 0.44 77 1007.3
20190322010650 51 360 0.0 0.0 0.00 0.44 0.44 77 1007.2
20190322010148 51 360 0.0 0.0 0.00 0.44 0.44 77 1007.2
20190322005646 51 360 0.0 0.0 0.00 0.46 0.44 77 1007.2
20190322005144 51 360 0.0 0.0 0.00 0.46 0.44 78 1007.1
20190322004642 51 360 0.0 0.0 0.00 0.46 0.44 78 1007.2
20190322004142 50 360 0.0 0.0 0.00 0.46 0.44 80 1007.1
20190322003640 50 360 0.0 0.0 0.00 0.46 0.44 82 1007.0
20190322003138 49 360 0.0 0.0 0.00 0.46 0.44 83 1006.9